sensor_id;sensor_type;location;lat;lon;timestamp;temperature;humidity
41922;DHT22;27609;51.002;5.354;2024-02-04T00:01:51;10.30;99.90
41922;DHT22;27609;51.002;5.354;2024-02-04T00:04:17;10.40;99.90
41922;DHT22;27609;51.002;5.354;2024-02-04T00:06:42;10.40;99.90
41922;DHT22;27609;51.002;5.354;2024-02-04T00:09:08;10.30;99.90
41922;DHT22;27609;51.002;5.354;2024-02-04T00:11:34;10.30;99.90
41922;DHT22;27609;51.002;5.354;2024-02-04T00:14:00;10.30;99.90
41922;DHT22;27609;51.002;5.354;2024-02-04T00:16:26;10.40;99.90
41922;DHT22;27609;51.002;5.354;2024-02-04T00:18:52;10.40;99.90
41922;DHT22;27609;51.002;5.354;2024-02-04T00:21:18;10.30;99.90
41922;DHT22;27609;51.002;5.354;2024-02-04T00:23:44;10.30;99.90
41922;DHT22;27609;51.002;5.354;2024-02-04T00:26:10;10.30;99.90
41922;DHT22;27609;51.002;5.354;2024-02-04T00:28:35;10.30;99.90
41922;DHT22;27609;51.002;5.354;2024-02-04T00:31:01;10.30;99.90
41922;DHT22;27609;51.002;5.354;2024-02-04T00:33:27;10.30;99.90
41922;DHT22;27609;51.002;5.354;2024-02-04T00:35:52;10.30;99.90
41922;DHT22;27609;51.002;5.354;2024-02-04T00:38:18;10.30;99.90
41922;DHT22;27609;51.002;5.354;2024-02-04T00:40:44;10.30;99.90
41922;DHT22;27609;51.002;5.354;2024-02-04T00:43:10;10.30;99.90
41922;DHT22;27609;51.002;5.354;2024-02-04T00:45:35;10.30;99.90
41922;DHT22;27609;51.002;5.354;2024-02-04T00:48:01;10.40;99.90
41922;DHT22;27609;51.002;5.354;2024-02-04T00:50:27;10.40;99.90
41922;DHT22;27609;51.002;5.354;2024-02-04T00:52:52;10.30;99.90
41922;DHT22;27609;51.002;5.354;2024-02-04T00:55:19;10.40;99.90
41922;DHT22;27609;51.002;5.354;2024-02-04T00:57:45;10.30;99.90
41922;DHT22;27609;51.002;5.354;2024-02-04T01:00:11;10.40;99.90
41922;DHT22;27609;51.002;5.354;2024-02-04T01:02:38;10.40;99.90
41922;DHT22;27609;51.002;5.354;2024-02-04T01:05:05;10.40;99.90
41922;DHT22;27609;51.002;5.354;2024-02-04T01:07:30;10.40;99.90
41922;DHT22;27609;51.002;5.354;2024-02-04T01:09:56;10.30;99.90
41922;DHT22;27609;51.002;5.354;2024-02-04T01:12:22;10.40;99.90
41922;DHT22;27609;51.002;5.354;2024-02-04T01:14:47;10.40;99.90
41922;DHT22;27609;51.002;5.354;2024-02-04T01:17:13;10.40;99.90
41922;DHT22;27609;51.002;5.354;2024-02-04T01:19:39;10.40;99.90
41922;DHT22;27609;51.002;5.354;2024-02-04T01:22:04;10.40;99.90
41922;DHT22;27609;51.002;5.354;2024-02-04T01:24:31;10.40;99.90
41922;DHT22;27609;51.002;5.354;2024-02-04T01:26:57;10.50;99.90
41922;DHT22;27609;51.002;5.354;2024-02-04T01:29:23;10.40;99.90
41922;DHT22;27609;51.002;5.354;2024-02-04T01:31:48;10.50;99.90
41922;DHT22;27609;51.002;5.354;2024-02-04T01:34:14;10.40;99.90
41922;DHT22;27609;51.002;5.354;2024-02-04T01:36:40;10.40;99.90
41922;DHT22;27609;51.002;5.354;2024-02-04T01:39:05;10.50;99.90
41922;DHT22;27609;51.002;5.354;2024-02-04T01:41:32;10.50;99.90
41922;DHT22;27609;51.002;5.354;2024-02-04T01:43:58;10.40;99.90
41922;DHT22;27609;51.002;5.354;2024-02-04T01:46:24;10.40;99.90
41922;DHT22;27609;51.002;5.354;2024-02-04T01:48:50;9.90;99.90
41922;DHT22;27609;51.002;5.354;2024-02-04T01:51:17;10.50;99.90
41922;DHT22;27609;51.002;5.354;2024-02-04T01:53:46;10.40;99.90
41922;DHT22;27609;51.002;5.354;2024-02-04T01:56:13;10.50;99.90
41922;DHT22;27609;51.002;5.354;2024-02-04T01:58:39;10.50;99.90
41922;DHT22;27609;51.002;5.354;2024-02-04T02:01:05;10.40;99.90
41922;DHT22;27609;51.002;5.354;2024-02-04T02:03:31;10.50;99.90
41922;DHT22;27609;51.002;5.354;2024-02-04T02:05:58;10.40;99.90
41922;DHT22;27609;51.002;5.354;2024-02-04T02:08:24;10.40;99.90
41922;DHT22;27609;51.002;5.354;2024-02-04T02:10:51;10.50;99.90
41922;DHT22;27609;51.002;5.354;2024-02-04T02:13:24;10.40;99.90
41922;DHT22;27609;51.002;5.354;2024-02-04T02:15:56;10.40;99.90
41922;DHT22;27609;51.002;5.354;2024-02-04T02:23:31;10.50;99.90
41922;DHT22;27609;51.002;5.354;2024-02-04T02:25:58;10.60;99.90
41922;DHT22;27609;51.002;5.354;2024-02-04T02:28:24;10.50;99.90
41922;DHT22;27609;51.002;5.354;2024-02-04T02:30:50;10.60;99.90
41922;DHT22;27609;51.002;5.354;2024-02-04T02:33:16;10.50;99.90
41922;DHT22;27609;51.002;5.354;2024-02-04T02:35:43;10.50;99.90
41922;DHT22;27609;51.002;5.354;2024-02-04T02:38:32;10.50;99.90
41922;DHT22;27609;51.002;5.354;2024-02-04T02:41:03;10.60;99.90
41922;DHT22;27609;51.002;5.354;2024-02-04T02:43:29;10.50;99.90
41922;DHT22;27609;51.002;5.354;2024-02-04T02:45:56;10.50;99.90
41922;DHT22;27609;51.002;5.354;2024-02-04T02:48:22;10.50;99.90
41922;DHT22;27609;51.002;5.354;2024-02-04T02:50:49;10.50;99.90
41922;DHT22;27609;51.002;5.354;2024-02-04T02:53:15;10.60;99.90
41922;DHT22;27609;51.002;5.354;2024-02-04T02:55:41;10.60;99.90
41922;DHT22;27609;51.002;5.354;2024-02-04T02:58:07;10.60;99.90
41922;DHT22;27609;51.002;5.354;2024-02-04T03:00:33;10.60;99.90
41922;DHT22;27609;51.002;5.354;2024-02-04T03:02:58;10.60;99.90
41922;DHT22;27609;51.002;5.354;2024-02-04T03:05:24;10.60;99.90
41922;DHT22;27609;51.002;5.354;2024-02-04T03:07:50;10.60;99.90
41922;DHT22;27609;51.002;5.354;2024-02-04T03:10:16;10.60;99.90
41922;DHT22;27609;51.002;5.354;2024-02-04T03:12:41;10.60;99.90
41922;DHT22;27609;51.002;5.354;2024-02-04T03:15:07;10.60;99.90
41922;DHT22;27609;51.002;5.354;2024-02-04T03:17:33;10.60;99.90
41922;DHT22;27609;51.002;5.354;2024-02-04T03:19:59;10.50;99.90
41922;DHT22;27609;51.002;5.354;2024-02-04T03:22:25;10.50;99.90
41922;DHT22;27609;51.002;5.354;2024-02-04T03:24:51;10.50;99.90
41922;DHT22;27609;51.002;5.354;2024-02-04T03:27:17;10.60;99.90
41922;DHT22;27609;51.002;5.354;2024-02-04T03:29:43;10.60;99.90
41922;DHT22;27609;51.002;5.354;2024-02-04T03:32:11;10.60;99.90
41922;DHT22;27609;51.002;5.354;2024-02-04T03:34:36;10.50;99.90
41922;DHT22;27609;51.002;5.354;2024-02-04T03:37:02;10.60;99.90
41922;DHT22;27609;51.002;5.354;2024-02-04T03:39:28;10.60;99.90
41922;DHT22;27609;51.002;5.354;2024-02-04T03:41:54;10.60;99.90
41922;DHT22;27609;51.002;5.354;2024-02-04T03:44:19;10.60;99.90
41922;DHT22;27609;51.002;5.354;2024-02-04T03:46:50;10.70;99.90
41922;DHT22;27609;51.002;5.354;2024-02-04T03:49:16;10.70;99.90
41922;DHT22;27609;51.002;5.354;2024-02-04T03:51:42;10.70;99.90
41922;DHT22;27609;51.002;5.354;2024-02-04T03:54:07;10.70;99.90
41922;DHT22;27609;51.002;5.354;2024-02-04T03:56:33;10.70;99.90
41922;DHT22;27609;51.002;5.354;2024-02-04T03:58:59;10.70;99.90
41922;DHT22;27609;51.002;5.354;2024-02-04T04:01:25;10.70;99.90
41922;DHT22;27609;51.002;5.354;2024-02-04T04:03:50;10.70;99.90
41922;DHT22;27609;51.002;5.354;2024-02-04T04:06:16;10.70;99.90
41922;DHT22;27609;51.002;5.354;2024-02-04T04:08:42;10.80;99.90
41922;DHT22;27609;51.002;5.354;2024-02-04T04:11:09;10.80;99.90
41922;DHT22;27609;51.002;5.354;2024-02-04T04:13:35;10.80;99.90
41922;DHT22;27609;51.002;5.354;2024-02-04T04:16:04;10.80;99.90
41922;DHT22;27609;51.002;5.354;2024-02-04T04:18:30;10.70;99.90
41922;DHT22;27609;51.002;5.354;2024-02-04T04:20:56;10.70;99.90
41922;DHT22;27609;51.002;5.354;2024-02-04T04:23:22;10.70;99.90
41922;DHT22;27609;51.002;5.354;2024-02-04T04:25:48;10.70;99.90
41922;DHT22;27609;51.002;5.354;2024-02-04T04:28:13;10.70;99.90
41922;DHT22;27609;51.002;5.354;2024-02-04T04:30:39;10.80;99.90
41922;DHT22;27609;51.002;5.354;2024-02-04T04:33:05;10.80;99.90
41922;DHT22;27609;51.002;5.354;2024-02-04T04:35:31;10.80;99.90
41922;DHT22;27609;51.002;5.354;2024-02-04T04:37:57;10.80;99.90
41922;DHT22;27609;51.002;5.354;2024-02-04T04:40:23;10.80;99.90
41922;DHT22;27609;51.002;5.354;2024-02-04T04:42:49;10.80;99.90
41922;DHT22;27609;51.002;5.354;2024-02-04T04:45:14;10.80;99.90
41922;DHT22;27609;51.002;5.354;2024-02-04T04:47:40;10.80;99.90
41922;DHT22;27609;51.002;5.354;2024-02-04T04:50:06;10.80;99.90
41922;DHT22;27609;51.002;5.354;2024-02-04T04:52:32;10.80;99.90
41922;DHT22;27609;51.002;5.354;2024-02-04T04:54:58;10.70;99.90
41922;DHT22;27609;51.002;5.354;2024-02-04T04:57:24;10.70;99.90
41922;DHT22;27609;51.002;5.354;2024-02-04T04:59:50;10.70;99.90
41922;DHT22;27609;51.002;5.354;2024-02-04T05:02:15;10.70;99.90
41922;DHT22;27609;51.002;5.354;2024-02-04T05:04:44;10.70;99.90
41922;DHT22;27609;51.002;5.354;2024-02-04T05:07:10;10.70;99.90
41922;DHT22;27609;51.002;5.354;2024-02-04T05:09:36;10.60;99.90
41922;DHT22;27609;51.002;5.354;2024-02-04T05:12:07;10.60;99.90
41922;DHT22;27609;51.002;5.354;2024-02-04T05:14:33;10.60;99.90
41922;DHT22;27609;51.002;5.354;2024-02-04T05:17:00;10.60;99.90
41922;DHT22;27609;51.002;5.354;2024-02-04T05:19:25;10.60;99.90
41922;DHT22;27609;51.002;5.354;2024-02-04T05:21:51;10.60;99.90
41922;DHT22;27609;51.002;5.354;2024-02-04T05:24:16;10.60;99.90
41922;DHT22;27609;51.002;5.354;2024-02-04T05:26:42;10.60;99.90
41922;DHT22;27609;51.002;5.354;2024-02-04T05:29:08;10.70;99.90
41922;DHT22;27609;51.002;5.354;2024-02-04T05:31:34;10.60;99.90
41922;DHT22;27609;51.002;5.354;2024-02-04T05:33:59;10.60;99.90
41922;DHT22;27609;51.002;5.354;2024-02-04T05:36:30;10.60;99.90
41922;DHT22;27609;51.002;5.354;2024-02-04T05:38:56;10.60;99.90
41922;DHT22;27609;51.002;5.354;2024-02-04T05:41:21;10.60;99.90
41922;DHT22;27609;51.002;5.354;2024-02-04T05:43:47;10.60;99.90
41922;DHT22;27609;51.002;5.354;2024-02-04T05:46:13;10.60;99.90
41922;DHT22;27609;51.002;5.354;2024-02-04T05:48:40;10.60;99.90
41922;DHT22;27609;51.002;5.354;2024-02-04T05:51:09;10.60;99.90
41922;DHT22;27609;51.002;5.354;2024-02-04T05:53:35;10.60;99.90
41922;DHT22;27609;51.002;5.354;2024-02-04T05:56:01;10.50;99.90
41922;DHT22;27609;51.002;5.354;2024-02-04T05:58:26;10.50;99.90
41922;DHT22;27609;51.002;5.354;2024-02-04T06:00:52;10.50;99.90
41922;DHT22;27609;51.002;5.354;2024-02-04T06:03:18;10.50;99.90
41922;DHT22;27609;51.002;5.354;2024-02-04T06:05:44;10.60;99.90
41922;DHT22;27609;51.002;5.354;2024-02-04T06:08:09;10.60;99.90
41922;DHT22;27609;51.002;5.354;2024-02-04T06:10:35;10.60;99.90
41922;DHT22;27609;51.002;5.354;2024-02-04T06:13:01;10.60;99.90
41922;DHT22;27609;51.002;5.354;2024-02-04T06:15:26;10.50;99.90
41922;DHT22;27609;51.002;5.354;2024-02-04T06:17:52;10.50;99.90
41922;DHT22;27609;51.002;5.354;2024-02-04T06:20:18;10.50;99.90
41922;DHT22;27609;51.002;5.354;2024-02-04T06:22:43;10.60;99.90
41922;DHT22;27609;51.002;5.354;2024-02-04T06:25:09;10.50;99.90
41922;DHT22;27609;51.002;5.354;2024-02-04T06:27:35;10.60;99.90
41922;DHT22;27609;51.002;5.354;2024-02-04T06:30:00;10.60;99.90
41922;DHT22;27609;51.002;5.354;2024-02-04T06:32:26;10.60;99.90
41922;DHT22;27609;51.002;5.354;2024-02-04T06:34:52;10.60;99.90
41922;DHT22;27609;51.002;5.354;2024-02-04T06:37:20;10.50;99.90
41922;DHT22;27609;51.002;5.354;2024-02-04T06:39:46;10.50;99.90
41922;DHT22;27609;51.002;5.354;2024-02-04T06:42:12;10.50;99.90
41922;DHT22;27609;51.002;5.354;2024-02-04T06:44:37;10.50;99.90
41922;DHT22;27609;51.002;5.354;2024-02-04T06:47:03;10.50;99.90
41922;DHT22;27609;51.002;5.354;2024-02-04T06:49:29;10.40;99.90
41922;DHT22;27609;51.002;5.354;2024-02-04T06:51:54;10.50;99.90
41922;DHT22;27609;51.002;5.354;2024-02-04T06:54:23;10.40;99.90
41922;DHT22;27609;51.002;5.354;2024-02-04T06:56:53;10.50;99.90
41922;DHT22;27609;51.002;5.354;2024-02-04T06:59:19;10.50;99.90
41922;DHT22;27609;51.002;5.354;2024-02-04T07:01:45;10.60;99.90
41922;DHT22;27609;51.002;5.354;2024-02-04T07:04:10;10.50;99.90
41922;DHT22;27609;51.002;5.354;2024-02-04T07:06:36;10.50;99.90
41922;DHT22;27609;51.002;5.354;2024-02-04T07:09:02;10.50;99.90
41922;DHT22;27609;51.002;5.354;2024-02-04T07:11:28;10.60;99.90
41922;DHT22;27609;51.002;5.354;2024-02-04T07:13:53;10.50;99.90
41922;DHT22;27609;51.002;5.354;2024-02-04T07:16:27;10.60;99.90
41922;DHT22;27609;51.002;5.354;2024-02-04T07:18:54;10.50;99.90
41922;DHT22;27609;51.002;5.354;2024-02-04T07:21:20;10.50;99.90
41922;DHT22;27609;51.002;5.354;2024-02-04T07:23:46;10.50;99.90
41922;DHT22;27609;51.002;5.354;2024-02-04T07:26:12;10.50;99.90
41922;DHT22;27609;51.002;5.354;2024-02-04T07:28:38;10.50;99.90
41922;DHT22;27609;51.002;5.354;2024-02-04T07:31:03;10.50;99.90
41922;DHT22;27609;51.002;5.354;2024-02-04T07:33:29;10.50;99.90
41922;DHT22;27609;51.002;5.354;2024-02-04T07:35:55;10.60;99.90
41922;DHT22;27609;51.002;5.354;2024-02-04T07:38:20;10.60;99.90
41922;DHT22;27609;51.002;5.354;2024-02-04T07:40:46;10.50;99.90
41922;DHT22;27609;51.002;5.354;2024-02-04T07:43:12;10.50;99.90
41922;DHT22;27609;51.002;5.354;2024-02-04T07:45:38;10.50;99.90
41922;DHT22;27609;51.002;5.354;2024-02-04T07:48:04;10.50;99.90
41922;DHT22;27609;51.002;5.354;2024-02-04T07:50:30;10.50;99.90
41922;DHT22;27609;51.002;5.354;2024-02-04T07:52:55;10.60;99.90
41922;DHT22;27609;51.002;5.354;2024-02-04T07:55:21;10.50;99.90
41922;DHT22;27609;51.002;5.354;2024-02-04T07:57:47;10.50;99.90
41922;DHT22;27609;51.002;5.354;2024-02-04T08:00:12;10.50;99.90
41922;DHT22;27609;51.002;5.354;2024-02-04T08:02:39;10.50;99.90
41922;DHT22;27609;51.002;5.354;2024-02-04T08:05:05;10.50;99.90
41922;DHT22;27609;51.002;5.354;2024-02-04T08:07:31;10.60;99.90
41922;DHT22;27609;51.002;5.354;2024-02-04T08:09:57;10.50;99.90
41922;DHT22;27609;51.002;5.354;2024-02-04T08:12:23;10.60;99.90
41922;DHT22;27609;51.002;5.354;2024-02-04T08:14:48;10.60;99.90
41922;DHT22;27609;51.002;5.354;2024-02-04T08:17:14;10.60;99.90
41922;DHT22;27609;51.002;5.354;2024-02-04T08:19:41;10.60;99.90
41922;DHT22;27609;51.002;5.354;2024-02-04T08:22:07;10.60;99.90
41922;DHT22;27609;51.002;5.354;2024-02-04T08:24:34;10.70;99.90
41922;DHT22;27609;51.002;5.354;2024-02-04T08:27:00;10.70;99.90
41922;DHT22;27609;51.002;5.354;2024-02-04T08:29:25;10.70;99.90
41922;DHT22;27609;51.002;5.354;2024-02-04T08:31:52;10.70;99.90
41922;DHT22;27609;51.002;5.354;2024-02-04T08:34:18;10.80;99.90
41922;DHT22;27609;51.002;5.354;2024-02-04T08:36:46;10.80;99.90
41922;DHT22;27609;51.002;5.354;2024-02-04T08:39:11;10.80;99.90
41922;DHT22;27609;51.002;5.354;2024-02-04T08:41:37;10.80;99.90
41922;DHT22;27609;51.002;5.354;2024-02-04T08:44:03;10.80;99.90
41922;DHT22;27609;51.002;5.354;2024-02-04T08:46:28;10.80;99.90
41922;DHT22;27609;51.002;5.354;2024-02-04T08:48:54;10.90;99.90
41922;DHT22;27609;51.002;5.354;2024-02-04T08:51:20;10.80;99.90
41922;DHT22;27609;51.002;5.354;2024-02-04T08:53:45;10.90;99.90
41922;DHT22;27609;51.002;5.354;2024-02-04T08:56:11;10.90;99.90
41922;DHT22;27609;51.002;5.354;2024-02-04T08:58:37;10.90;99.90
41922;DHT22;27609;51.002;5.354;2024-02-04T09:01:06;10.90;99.90
41922;DHT22;27609;51.002;5.354;2024-02-04T09:03:32;11.00;99.90
41922;DHT22;27609;51.002;5.354;2024-02-04T09:05:58;11.10;99.90
41922;DHT22;27609;51.002;5.354;2024-02-04T09:08:24;11.00;99.90
41922;DHT22;27609;51.002;5.354;2024-02-04T09:10:50;11.10;99.90
41922;DHT22;27609;51.002;5.354;2024-02-04T09:13:15;11.10;99.90
41922;DHT22;27609;51.002;5.354;2024-02-04T09:15:41;11.20;99.90
41922;DHT22;27609;51.002;5.354;2024-02-04T09:18:07;11.20;99.90
41922;DHT22;27609;51.002;5.354;2024-02-04T09:20:33;11.10;99.90
41922;DHT22;27609;51.002;5.354;2024-02-04T09:22:58;11.10;99.90
41922;DHT22;27609;51.002;5.354;2024-02-04T09:25:27;11.20;99.90
41922;DHT22;27609;51.002;5.354;2024-02-04T09:27:53;11.20;99.90
41922;DHT22;27609;51.002;5.354;2024-02-04T09:30:19;11.20;99.90
41922;DHT22;27609;51.002;5.354;2024-02-04T09:32:44;11.20;99.90
41922;DHT22;27609;51.002;5.354;2024-02-04T09:35:10;11.20;99.90
41922;DHT22;27609;51.002;5.354;2024-02-04T09:37:36;11.20;99.90
41922;DHT22;27609;51.002;5.354;2024-02-04T09:40:02;11.10;99.90
41922;DHT22;27609;51.002;5.354;2024-02-04T09:42:27;11.20;99.90
41922;DHT22;27609;51.002;5.354;2024-02-04T09:44:55;11.10;99.90
41922;DHT22;27609;51.002;5.354;2024-02-04T09:47:21;11.10;99.90
41922;DHT22;27609;51.002;5.354;2024-02-04T09:49:46;11.00;99.90
41922;DHT22;27609;51.002;5.354;2024-02-04T09:52:13;11.10;99.90
41922;DHT22;27609;51.002;5.354;2024-02-04T09:54:44;11.20;99.90
41922;DHT22;27609;51.002;5.354;2024-02-04T09:57:12;11.30;99.90
41922;DHT22;27609;51.002;5.354;2024-02-04T09:59:38;11.30;99.90
41922;DHT22;27609;51.002;5.354;2024-02-04T10:02:04;11.40;99.90
41922;DHT22;27609;51.002;5.354;2024-02-04T10:04:31;11.50;99.90
41922;DHT22;27609;51.002;5.354;2024-02-04T10:06:56;11.60;99.90
41922;DHT22;27609;51.002;5.354;2024-02-04T10:09:22;11.60;99.90
41922;DHT22;27609;51.002;5.354;2024-02-04T10:11:48;11.60;99.90
41922;DHT22;27609;51.002;5.354;2024-02-04T10:14:13;11.50;99.90
41922;DHT22;27609;51.002;5.354;2024-02-04T10:16:41;11.40;99.90
41922;DHT22;27609;51.002;5.354;2024-02-04T10:19:07;11.50;99.90
41922;DHT22;27609;51.002;5.354;2024-02-04T10:21:32;11.50;99.90
41922;DHT22;27609;51.002;5.354;2024-02-04T10:23:58;11.60;99.90
41922;DHT22;27609;51.002;5.354;2024-02-04T10:26:31;11.50;99.90
41922;DHT22;27609;51.002;5.354;2024-02-04T10:28:58;11.50;99.90
41922;DHT22;27609;51.002;5.354;2024-02-04T10:31:24;11.50;99.90
41922;DHT22;27609;51.002;5.354;2024-02-04T10:33:50;11.40;99.90
41922;DHT22;27609;51.002;5.354;2024-02-04T10:36:17;11.30;99.90
41922;DHT22;27609;51.002;5.354;2024-02-04T10:38:43;11.40;99.90
41922;DHT22;27609;51.002;5.354;2024-02-04T10:41:14;11.50;99.90
41922;DHT22;27609;51.002;5.354;2024-02-04T10:43:42;11.50;99.90
41922;DHT22;27609;51.002;5.354;2024-02-04T10:46:18;11.60;99.90
41922;DHT22;27609;51.002;5.354;2024-02-04T10:48:48;11.60;99.90
41922;DHT22;27609;51.002;5.354;2024-02-04T10:51:16;11.50;99.90
41922;DHT22;27609;51.002;5.354;2024-02-04T10:53:42;11.40;99.90
41922;DHT22;27609;51.002;5.354;2024-02-04T10:56:24;11.40;99.90
41922;DHT22;27609;51.002;5.354;2024-02-04T10:58:52;11.50;99.90
41922;DHT22;27609;51.002;5.354;2024-02-04T11:01:18;11.50;99.90
41922;DHT22;27609;51.002;5.354;2024-02-04T11:03:45;11.40;99.90
41922;DHT22;27609;51.002;5.354;2024-02-04T11:06:12;11.40;99.90
41922;DHT22;27609;51.002;5.354;2024-02-04T11:08:39;11.40;99.90
41922;DHT22;27609;51.002;5.354;2024-02-04T11:11:05;11.40;99.90
41922;DHT22;27609;51.002;5.354;2024-02-04T11:13:31;11.40;99.90
41922;DHT22;27609;51.002;5.354;2024-02-04T11:15:58;11.50;99.90
41922;DHT22;27609;51.002;5.354;2024-02-04T11:21:51;11.50;99.90
41922;DHT22;27609;51.002;5.354;2024-02-04T11:26:56;11.50;99.90
41922;DHT22;27609;51.002;5.354;2024-02-04T11:29:22;11.60;99.90
41922;DHT22;27609;51.002;5.354;2024-02-04T11:31:48;11.70;99.90
41922;DHT22;27609;51.002;5.354;2024-02-04T11:34:14;11.70;99.90
41922;DHT22;27609;51.002;5.354;2024-02-04T11:36:40;11.70;99.90
41922;DHT22;27609;51.002;5.354;2024-02-04T11:39:20;11.80;99.90
41922;DHT22;27609;51.002;5.354;2024-02-04T11:41:48;11.80;99.90
41922;DHT22;27609;51.002;5.354;2024-02-04T11:44:25;11.80;99.90
41922;DHT22;27609;51.002;5.354;2024-02-04T11:46:51;11.80;99.90
41922;DHT22;27609;51.002;5.354;2024-02-04T11:49:18;11.80;99.90
41922;DHT22;27609;51.002;5.354;2024-02-04T11:51:52;11.90;99.90
41922;DHT22;27609;51.002;5.354;2024-02-04T11:54:19;11.80;99.90
41922;DHT22;27609;51.002;5.354;2024-02-04T11:56:45;11.90;99.90
41922;DHT22;27609;51.002;5.354;2024-02-04T11:59:25;11.90;99.90
41922;DHT22;27609;51.002;5.354;2024-02-04T12:01:55;11.90;99.90
41922;DHT22;27609;51.002;5.354;2024-02-04T12:04:22;11.90;99.90
41922;DHT22;27609;51.002;5.354;2024-02-04T12:06:50;11.80;99.90
41922;DHT22;27609;51.002;5.354;2024-02-04T12:09:17;11.80;99.90
41922;DHT22;27609;51.002;5.354;2024-02-04T12:11:47;11.70;99.90
41922;DHT22;27609;51.002;5.354;2024-02-04T12:14:14;11.70;99.90
41922;DHT22;27609;51.002;5.354;2024-02-04T12:16:40;11.70;99.90
41922;DHT22;27609;51.002;5.354;2024-02-04T12:19:06;11.80;99.90
41922;DHT22;27609;51.002;5.354;2024-02-04T12:21:33;11.80;99.90
41922;DHT22;27609;51.002;5.354;2024-02-04T12:23:59;11.90;99.90
41922;DHT22;27609;51.002;5.354;2024-02-04T12:26:25;11.90;99.90
41922;DHT22;27609;51.002;5.354;2024-02-04T12:28:52;11.90;99.90
41922;DHT22;27609;51.002;5.354;2024-02-04T12:33:57;12.10;99.90
41922;DHT22;27609;51.002;5.354;2024-02-04T12:36:27;12.10;99.90
41922;DHT22;27609;51.002;5.354;2024-02-04T12:38:54;12.00;99.90
41922;DHT22;27609;51.002;5.354;2024-02-04T12:41:24;12.00;99.90
41922;DHT22;27609;51.002;5.354;2024-02-04T12:43:51;11.80;99.90
41922;DHT22;27609;51.002;5.354;2024-02-04T12:46:20;11.70;99.90
41922;DHT22;27609;51.002;5.354;2024-02-04T12:48:57;11.70;99.90
41922;DHT22;27609;51.002;5.354;2024-02-04T12:51:24;11.70;99.90
41922;DHT22;27609;51.002;5.354;2024-02-04T12:54:01;11.70;99.90
41922;DHT22;27609;51.002;5.354;2024-02-04T12:56:26;11.70;99.90
41922;DHT22;27609;51.002;5.354;2024-02-04T12:58:52;11.70;99.90
41922;DHT22;27609;51.002;5.354;2024-02-04T13:01:18;11.60;99.90
41922;DHT22;27609;51.002;5.354;2024-02-04T13:03:43;11.70;99.90
41922;DHT22;27609;51.002;5.354;2024-02-04T13:06:10;11.70;99.90
41922;DHT22;27609;51.002;5.354;2024-02-04T13:08:36;11.70;99.90
41922;DHT22;27609;51.002;5.354;2024-02-04T13:11:01;11.70;99.90
41922;DHT22;27609;51.002;5.354;2024-02-04T13:13:27;11.80;99.90
41922;DHT22;27609;51.002;5.354;2024-02-04T13:15:54;11.80;99.90
41922;DHT22;27609;51.002;5.354;2024-02-04T13:18:20;11.80;99.90
41922;DHT22;27609;51.002;5.354;2024-02-04T13:20:45;11.70;99.90
41922;DHT22;27609;51.002;5.354;2024-02-04T13:23:11;11.80;99.90
41922;DHT22;27609;51.002;5.354;2024-02-04T13:25:37;11.80;99.90
41922;DHT22;27609;51.002;5.354;2024-02-04T13:28:03;11.80;99.90
41922;DHT22;27609;51.002;5.354;2024-02-04T13:30:30;11.90;99.90
41922;DHT22;27609;51.002;5.354;2024-02-04T13:32:56;11.80;99.90
41922;DHT22;27609;51.002;5.354;2024-02-04T13:35:23;11.80;99.90
41922;DHT22;27609;51.002;5.354;2024-02-04T13:37:49;11.70;99.90
41922;DHT22;27609;51.002;5.354;2024-02-04T13:40:21;11.70;99.90
41922;DHT22;27609;51.002;5.354;2024-02-04T13:42:48;11.70;99.90
41922;DHT22;27609;51.002;5.354;2024-02-04T13:45:14;11.60;99.90
41922;DHT22;27609;51.002;5.354;2024-02-04T13:47:40;11.60;99.90
41922;DHT22;27609;51.002;5.354;2024-02-04T13:50:07;11.60;99.90
41922;DHT22;27609;51.002;5.354;2024-02-04T13:52:34;11.60;99.90
41922;DHT22;27609;51.002;5.354;2024-02-04T13:55:00;11.70;99.90
41922;DHT22;27609;51.002;5.354;2024-02-04T13:57:26;11.70;99.90
41922;DHT22;27609;51.002;5.354;2024-02-04T13:59:52;11.80;99.90
41922;DHT22;27609;51.002;5.354;2024-02-04T14:02:18;11.80;99.90
41922;DHT22;27609;51.002;5.354;2024-02-04T14:04:44;11.80;99.90
41922;DHT22;27609;51.002;5.354;2024-02-04T14:07:10;11.80;99.90
41922;DHT22;27609;51.002;5.354;2024-02-04T14:09:35;11.70;99.90
41922;DHT22;27609;51.002;5.354;2024-02-04T14:12:04;11.70;99.90
41922;DHT22;27609;51.002;5.354;2024-02-04T14:14:30;11.70;99.90
41922;DHT22;27609;51.002;5.354;2024-02-04T14:16:57;11.60;99.90
41922;DHT22;27609;51.002;5.354;2024-02-04T14:19:23;11.70;99.90
41922;DHT22;27609;51.002;5.354;2024-02-04T14:21:48;11.70;99.90
41922;DHT22;27609;51.002;5.354;2024-02-04T14:24:14;11.60;99.90
41922;DHT22;27609;51.002;5.354;2024-02-04T14:26:40;11.60;99.90
41922;DHT22;27609;51.002;5.354;2024-02-04T14:29:06;11.60;99.90
41922;DHT22;27609;51.002;5.354;2024-02-04T14:31:33;11.60;99.90
41922;DHT22;27609;51.002;5.354;2024-02-04T14:33:58;11.60;99.90
41922;DHT22;27609;51.002;5.354;2024-02-04T14:36:24;11.50;99.90
41922;DHT22;27609;51.002;5.354;2024-02-04T14:38:50;11.50;99.90
41922;DHT22;27609;51.002;5.354;2024-02-04T14:41:16;11.50;99.90
41922;DHT22;27609;51.002;5.354;2024-02-04T14:43:42;11.50;99.90
41922;DHT22;27609;51.002;5.354;2024-02-04T14:46:08;11.40;99.90
41922;DHT22;27609;51.002;5.354;2024-02-04T14:48:36;11.50;99.90
41922;DHT22;27609;51.002;5.354;2024-02-04T14:51:02;11.40;99.90
41922;DHT22;27609;51.002;5.354;2024-02-04T14:53:28;11.50;99.90
41922;DHT22;27609;51.002;5.354;2024-02-04T14:55:54;11.40;99.90
41922;DHT22;27609;51.002;5.354;2024-02-04T14:58:21;11.40;99.90
41922;DHT22;27609;51.002;5.354;2024-02-04T15:00:48;11.40;99.90
41922;DHT22;27609;51.002;5.354;2024-02-04T15:03:14;11.40;99.90
41922;DHT22;27609;51.002;5.354;2024-02-04T15:05:42;11.40;99.90
41922;DHT22;27609;51.002;5.354;2024-02-04T15:08:08;11.50;99.90
41922;DHT22;27609;51.002;5.354;2024-02-04T15:10:34;11.40;99.90
41922;DHT22;27609;51.002;5.354;2024-02-04T15:13:00;11.50;99.90
41922;DHT22;27609;51.002;5.354;2024-02-04T15:15:27;11.50;99.90
41922;DHT22;27609;51.002;5.354;2024-02-04T15:17:53;11.50;99.90
41922;DHT22;27609;51.002;5.354;2024-02-04T15:20:19;11.50;99.90
41922;DHT22;27609;51.002;5.354;2024-02-04T15:22:46;11.50;99.90
41922;DHT22;27609;51.002;5.354;2024-02-04T15:25:13;11.50;99.90
41922;DHT22;27609;51.002;5.354;2024-02-04T15:27:42;11.50;99.90
41922;DHT22;27609;51.002;5.354;2024-02-04T15:30:10;11.60;99.90
41922;DHT22;27609;51.002;5.354;2024-02-04T15:32:36;11.60;99.90
41922;DHT22;27609;51.002;5.354;2024-02-04T15:35:02;11.70;99.90
41922;DHT22;27609;51.002;5.354;2024-02-04T15:37:28;11.60;99.90
41922;DHT22;27609;51.002;5.354;2024-02-04T15:39:54;11.70;99.90